sensor_id;sensor_type;location;lat;lon;timestamp;P1;durP1;ratioP1;P2;durP2;ratioP2
54139;SDS011;40046;53.254;5.900;2023-06-04T00:01:14;11.00;;;3.97;;
54139;SDS011;40046;53.254;5.900;2023-06-04T00:03:40;9.70;;;3.22;;
54139;SDS011;40046;53.254;5.900;2023-06-04T00:06:06;8.93;;;3.22;;
54139;SDS011;40046;53.254;5.900;2023-06-04T00:08:32;8.07;;;2.92;;
54139;SDS011;40046;53.254;5.900;2023-06-04T00:10:59;8.60;;;3.25;;
54139;SDS011;40046;53.254;5.900;2023-06-04T00:13:25;10.10;;;3.65;;
54139;SDS011;40046;53.254;5.900;2023-06-04T00:15:51;13.63;;;3.40;;
54139;SDS011;40046;53.254;5.900;2023-06-04T00:18:17;11.90;;;3.58;;
54139;SDS011;40046;53.254;5.900;2023-06-04T00:20:43;13.38;;;4.28;;
54139;SDS011;40046;53.254;5.900;2023-06-04T00:23:09;13.95;;;3.65;;
54139;SDS011;40046;53.254;5.900;2023-06-04T00:25:36;10.00;;;4.40;;
54139;SDS011;40046;53.254;5.900;2023-06-04T00:28:02;12.00;;;3.20;;
54139;SDS011;40046;53.254;5.900;2023-06-04T00:30:28;11.32;;;3.22;;
54139;SDS011;40046;53.254;5.900;2023-06-04T00:32:54;12.40;;;4.05;;
54139;SDS011;40046;53.254;5.900;2023-06-04T00:35:20;9.02;;;3.58;;
54139;SDS011;40046;53.254;5.900;2023-06-04T00:37:46;8.77;;;3.50;;
54139;SDS011;40046;53.254;5.900;2023-06-04T00:40:12;12.70;;;3.38;;
54139;SDS011;40046;53.254;5.900;2023-06-04T00:42:39;9.65;;;3.13;;
54139;SDS011;40046;53.254;5.900;2023-06-04T00:45:05;14.50;;;3.55;;
54139;SDS011;40046;53.254;5.900;2023-06-04T00:47:34;11.18;;;3.90;;
54139;SDS011;40046;53.254;5.900;2023-06-04T00:50:01;13.18;;;3.40;;
54139;SDS011;40046;53.254;5.900;2023-06-04T00:52:27;9.48;;;3.15;;
54139;SDS011;40046;53.254;5.900;2023-06-04T00:54:54;9.80;;;3.33;;
54139;SDS011;40046;53.254;5.900;2023-06-04T00:57:21;8.00;;;2.80;;
54139;SDS011;40046;53.254;5.900;2023-06-04T00:59:47;7.20;;;3.08;;
54139;SDS011;40046;53.254;5.900;2023-06-04T01:02:15;13.73;;;3.67;;
54139;SDS011;40046;53.254;5.900;2023-06-04T01:07:21;11.05;;;2.85;;
54139;SDS011;40046;53.254;5.900;2023-06-04T01:09:48;9.90;;;3.90;;
54139;SDS011;40046;53.254;5.900;2023-06-04T01:12:15;8.27;;;3.25;;
54139;SDS011;40046;53.254;5.900;2023-06-04T01:14:42;10.75;;;3.35;;
54139;SDS011;40046;53.254;5.900;2023-06-04T01:17:19;7.03;;;3.30;;
54139;SDS011;40046;53.254;5.900;2023-06-04T01:24:55;9.15;;;3.30;;
54139;SDS011;40046;53.254;5.900;2023-06-04T01:27:22;6.38;;;3.33;;
54139;SDS011;40046;53.254;5.900;2023-06-04T01:29:48;14.07;;;3.55;;
54139;SDS011;40046;53.254;5.900;2023-06-04T01:32:15;8.48;;;3.78;;
54139;SDS011;40046;53.254;5.900;2023-06-04T01:34:45;13.40;;;4.75;;
54139;SDS011;40046;53.254;5.900;2023-06-04T01:37:11;10.10;;;4.35;;
54139;SDS011;40046;53.254;5.900;2023-06-04T01:39:38;12.30;;;5.70;;
54139;SDS011;40046;53.254;5.900;2023-06-04T01:42:04;12.63;;;5.55;;
54139;SDS011;40046;53.254;5.900;2023-06-04T01:44:31;10.98;;;5.93;;
54139;SDS011;40046;53.254;5.900;2023-06-04T01:46:57;12.30;;;5.85;;
54139;SDS011;40046;53.254;5.900;2023-06-04T01:49:23;10.65;;;5.97;;
54139;SDS011;40046;53.254;5.900;2023-06-04T01:51:49;23.17;;;6.97;;
54139;SDS011;40046;53.254;5.900;2023-06-04T01:54:15;11.65;;;6.60;;
54139;SDS011;40046;53.254;5.900;2023-06-04T01:56:41;14.45;;;7.53;;
54139;SDS011;40046;53.254;5.900;2023-06-04T01:59:08;13.15;;;5.72;;
54139;SDS011;40046;53.254;5.900;2023-06-04T02:01:37;11.38;;;6.72;;
54139;SDS011;40046;53.254;5.900;2023-06-04T02:04:03;8.02;;;5.30;;
54139;SDS011;40046;53.254;5.900;2023-06-04T02:06:29;12.57;;;6.20;;
54139;SDS011;40046;53.254;5.900;2023-06-04T02:08:56;9.98;;;5.32;;
54139;SDS011;40046;53.254;5.900;2023-06-04T02:11:22;12.23;;;5.20;;
54139;SDS011;40046;53.254;5.900;2023-06-04T02:13:48;13.18;;;6.47;;
54139;SDS011;40046;53.254;5.900;2023-06-04T02:16:14;15.35;;;7.18;;
54139;SDS011;40046;53.254;5.900;2023-06-04T02:18:41;20.60;;;8.20;;
54139;SDS011;40046;53.254;5.900;2023-06-04T02:21:07;17.17;;;7.93;;
54139;SDS011;40046;53.254;5.900;2023-06-04T02:23:33;17.05;;;7.70;;
54139;SDS011;40046;53.254;5.900;2023-06-04T02:25:59;16.40;;;7.63;;
54139;SDS011;40046;53.254;5.900;2023-06-04T02:28:26;14.50;;;7.97;;
54139;SDS011;40046;53.254;5.900;2023-06-04T02:30:52;13.70;;;7.22;;
54139;SDS011;40046;53.254;5.900;2023-06-04T02:33:18;14.13;;;6.57;;
54139;SDS011;40046;53.254;5.900;2023-06-04T02:35:45;12.48;;;6.65;;
54139;SDS011;40046;53.254;5.900;2023-06-04T02:38:11;13.38;;;6.38;;
54139;SDS011;40046;53.254;5.900;2023-06-04T02:40:38;17.52;;;7.20;;
54139;SDS011;40046;53.254;5.900;2023-06-04T02:43:04;19.27;;;5.30;;
54139;SDS011;40046;53.254;5.900;2023-06-04T02:45:31;11.13;;;4.97;;
54139;SDS011;40046;53.254;5.900;2023-06-04T02:47:57;12.13;;;4.82;;
54139;SDS011;40046;53.254;5.900;2023-06-04T02:50:23;14.10;;;5.00;;
54139;SDS011;40046;53.254;5.900;2023-06-04T02:52:49;14.70;;;4.90;;
54139;SDS011;40046;53.254;5.900;2023-06-04T02:55:16;11.43;;;6.05;;
54139;SDS011;40046;53.254;5.900;2023-06-04T02:57:42;13.40;;;5.13;;
54139;SDS011;40046;53.254;5.900;2023-06-04T03:00:09;10.90;;;5.50;;
54139;SDS011;40046;53.254;5.900;2023-06-04T03:02:40;11.48;;;4.93;;
54139;SDS011;40046;53.254;5.900;2023-06-04T03:05:08;10.70;;;4.97;;
54139;SDS011;40046;53.254;5.900;2023-06-04T03:07:36;12.43;;;5.38;;
54139;SDS011;40046;53.254;5.900;2023-06-04T03:10:02;7.43;;;4.20;;
54139;SDS011;40046;53.254;5.900;2023-06-04T03:12:30;11.35;;;5.28;;
54139;SDS011;40046;53.254;5.900;2023-06-04T03:14:56;11.80;;;6.20;;
54139;SDS011;40046;53.254;5.900;2023-06-04T03:17:22;9.07;;;4.88;;
54139;SDS011;40046;53.254;5.900;2023-06-04T03:19:48;7.75;;;5.47;;
54139;SDS011;40046;53.254;5.900;2023-06-04T03:22:15;7.35;;;5.40;;
54139;SDS011;40046;53.254;5.900;2023-06-04T03:24:41;15.23;;;7.82;;
54139;SDS011;40046;53.254;5.900;2023-06-04T03:27:08;11.63;;;6.45;;
54139;SDS011;40046;53.254;5.900;2023-06-04T03:29:36;10.48;;;5.45;;
54139;SDS011;40046;53.254;5.900;2023-06-04T03:32:04;12.07;;;6.93;;
54139;SDS011;40046;53.254;5.900;2023-06-04T03:34:32;10.65;;;5.97;;
54139;SDS011;40046;53.254;5.900;2023-06-04T03:36:58;10.20;;;6.57;;
54139;SDS011;40046;53.254;5.900;2023-06-04T03:39:25;9.55;;;6.38;;
54139;SDS011;40046;53.254;5.900;2023-06-04T03:41:51;9.60;;;5.72;;
54139;SDS011;40046;53.254;5.900;2023-06-04T03:44:20;11.15;;;6.03;;
54139;SDS011;40046;53.254;5.900;2023-06-04T03:46:47;12.68;;;6.18;;
54139;SDS011;40046;53.254;5.900;2023-06-04T03:49:14;12.15;;;6.47;;
54139;SDS011;40046;53.254;5.900;2023-06-04T03:51:43;11.90;;;6.35;;
54139;SDS011;40046;53.254;5.900;2023-06-04T03:54:10;16.40;;;6.30;;
54139;SDS011;40046;53.254;5.900;2023-06-04T03:56:37;10.15;;;7.07;;
54139;SDS011;40046;53.254;5.900;2023-06-04T03:59:06;11.40;;;6.38;;
54139;SDS011;40046;53.254;5.900;2023-06-04T04:01:32;17.23;;;7.35;;
54139;SDS011;40046;53.254;5.900;2023-06-04T04:03:58;10.60;;;6.95;;
54139;SDS011;40046;53.254;5.900;2023-06-04T04:06:25;8.43;;;5.90;;
54139;SDS011;40046;53.254;5.900;2023-06-04T04:08:52;10.38;;;6.25;;
54139;SDS011;40046;53.254;5.900;2023-06-04T04:11:20;10.25;;;7.03;;
54139;SDS011;40046;53.254;5.900;2023-06-04T04:13:47;13.20;;;7.45;;
54139;SDS011;40046;53.254;5.900;2023-06-04T04:16:14;15.35;;;7.05;;
54139;SDS011;40046;53.254;5.900;2023-06-04T04:18:41;12.90;;;7.88;;
54139;SDS011;40046;53.254;5.900;2023-06-04T04:21:09;11.80;;;7.15;;
54139;SDS011;40046;53.254;5.900;2023-06-04T04:23:37;9.63;;;7.03;;
54139;SDS011;40046;53.254;5.900;2023-06-04T04:26:07;12.30;;;7.57;;
54139;SDS011;40046;53.254;5.900;2023-06-04T04:28:35;15.63;;;7.43;;
54139;SDS011;40046;53.254;5.900;2023-06-04T04:31:02;15.93;;;8.57;;
54139;SDS011;40046;53.254;5.900;2023-06-04T04:33:32;10.23;;;7.38;;
54139;SDS011;40046;53.254;5.900;2023-06-04T04:36:02;9.77;;;7.53;;
54139;SDS011;40046;53.254;5.900;2023-06-04T04:38:28;14.32;;;7.40;;
54139;SDS011;40046;53.254;5.900;2023-06-04T04:41:00;11.13;;;8.05;;
54139;SDS011;40046;53.254;5.900;2023-06-04T04:43:31;11.02;;;6.22;;
54139;SDS011;40046;53.254;5.900;2023-06-04T04:46:01;9.18;;;6.57;;
54139;SDS011;40046;53.254;5.900;2023-06-04T04:48:27;12.55;;;6.82;;
54139;SDS011;40046;53.254;5.900;2023-06-04T04:50:54;7.65;;;5.47;;
54139;SDS011;40046;53.254;5.900;2023-06-04T04:53:20;11.93;;;6.78;;
54139;SDS011;40046;53.254;5.900;2023-06-04T04:55:46;10.70;;;6.78;;
54139;SDS011;40046;53.254;5.900;2023-06-04T04:58:13;11.25;;;7.13;;
54139;SDS011;40046;53.254;5.900;2023-06-04T05:00:39;14.18;;;6.93;;
54139;SDS011;40046;53.254;5.900;2023-06-04T05:03:05;14.00;;;6.95;;
54139;SDS011;40046;53.254;5.900;2023-06-04T05:05:32;11.55;;;6.55;;
54139;SDS011;40046;53.254;5.900;2023-06-04T05:08:00;11.75;;;6.35;;
54139;SDS011;40046;53.254;5.900;2023-06-04T05:10:32;12.52;;;5.57;;
54139;SDS011;40046;53.254;5.900;2023-06-04T05:13:02;8.98;;;5.70;;
54139;SDS011;40046;53.254;5.900;2023-06-04T05:15:36;8.10;;;6.20;;
54139;SDS011;40046;53.254;5.900;2023-06-04T05:18:06;10.43;;;5.78;;
54139;SDS011;40046;53.254;5.900;2023-06-04T05:20:35;8.52;;;5.13;;
54139;SDS011;40046;53.254;5.900;2023-06-04T05:23:03;8.88;;;5.82;;
54139;SDS011;40046;53.254;5.900;2023-06-04T05:25:30;13.80;;;6.85;;
54139;SDS011;40046;53.254;5.900;2023-06-04T05:27:58;12.30;;;5.20;;
54139;SDS011;40046;53.254;5.900;2023-06-04T05:30:24;9.48;;;6.13;;
54139;SDS011;40046;53.254;5.900;2023-06-04T05:32:51;15.00;;;6.40;;
54139;SDS011;40046;53.254;5.900;2023-06-04T05:35:21;9.43;;;5.53;;
54139;SDS011;40046;53.254;5.900;2023-06-04T05:37:47;10.50;;;6.10;;
54139;SDS011;40046;53.254;5.900;2023-06-04T05:40:20;9.68;;;6.72;;
54139;SDS011;40046;53.254;5.900;2023-06-04T05:42:47;15.93;;;7.57;;
54139;SDS011;40046;53.254;5.900;2023-06-04T05:45:14;11.85;;;6.78;;
54139;SDS011;40046;53.254;5.900;2023-06-04T05:47:41;11.57;;;6.18;;
54139;SDS011;40046;53.254;5.900;2023-06-04T05:50:08;13.68;;;6.90;;
54139;SDS011;40046;53.254;5.900;2023-06-04T05:52:35;13.07;;;7.07;;
54139;SDS011;40046;53.254;5.900;2023-06-04T05:55:04;11.40;;;5.95;;
54139;SDS011;40046;53.254;5.900;2023-06-04T05:57:33;12.82;;;5.72;;
54139;SDS011;40046;53.254;5.900;2023-06-04T05:59:59;14.32;;;5.90;;
54139;SDS011;40046;53.254;5.900;2023-06-04T06:02:25;9.85;;;5.30;;
54139;SDS011;40046;53.254;5.900;2023-06-04T06:04:52;9.85;;;4.95;;
54139;SDS011;40046;53.254;5.900;2023-06-04T06:07:18;9.30;;;4.22;;
54139;SDS011;40046;53.254;5.900;2023-06-04T06:09:45;9.85;;;4.90;;
54139;SDS011;40046;53.254;5.900;2023-06-04T06:12:11;7.38;;;4.18;;
54139;SDS011;40046;53.254;5.900;2023-06-04T06:14:40;14.52;;;5.25;;
54139;SDS011;40046;53.254;5.900;2023-06-04T06:17:07;11.00;;;3.90;;
54139;SDS011;40046;53.254;5.900;2023-06-04T06:19:33;9.63;;;3.58;;
54139;SDS011;40046;53.254;5.900;2023-06-04T06:21:59;9.70;;;3.40;;
54139;SDS011;40046;53.254;5.900;2023-06-04T06:24:27;7.85;;;2.88;;
54139;SDS011;40046;53.254;5.900;2023-06-04T06:26:54;10.13;;;3.47;;
54139;SDS011;40046;53.254;5.900;2023-06-04T06:29:20;13.15;;;3.33;;
54139;SDS011;40046;53.254;5.900;2023-06-04T06:31:47;9.13;;;2.70;;
54139;SDS011;40046;53.254;5.900;2023-06-04T06:34:14;9.57;;;2.50;;
54139;SDS011;40046;53.254;5.900;2023-06-04T06:36:40;12.02;;;3.20;;
54139;SDS011;40046;53.254;5.900;2023-06-04T06:39:07;9.10;;;3.00;;
54139;SDS011;40046;53.254;5.900;2023-06-04T06:41:33;6.40;;;2.50;;
54139;SDS011;40046;53.254;5.900;2023-06-04T06:44:00;7.53;;;2.80;;
54139;SDS011;40046;53.254;5.900;2023-06-04T06:46:27;9.75;;;3.15;;
54139;SDS011;40046;53.254;5.900;2023-06-04T06:48:53;11.60;;;2.83;;
54139;SDS011;40046;53.254;5.900;2023-06-04T06:51:19;6.82;;;1.90;;
54139;SDS011;40046;53.254;5.900;2023-06-04T06:53:45;8.95;;;2.78;;
54139;SDS011;40046;53.254;5.900;2023-06-04T06:56:11;9.57;;;2.65;;
54139;SDS011;40046;53.254;5.900;2023-06-04T06:58:37;6.72;;;1.88;;
54139;SDS011;40046;53.254;5.900;2023-06-04T07:01:03;8.63;;;1.92;;
54139;SDS011;40046;53.254;5.900;2023-06-04T07:03:31;11.13;;;2.15;;
54139;SDS011;40046;53.254;5.900;2023-06-04T07:05:57;6.80;;;2.63;;
54139;SDS011;40046;53.254;5.900;2023-06-04T07:08:23;6.40;;;2.65;;
54139;SDS011;40046;53.254;5.900;2023-06-04T07:10:49;8.00;;;2.65;;
54139;SDS011;40046;53.254;5.900;2023-06-04T07:13:15;6.90;;;2.33;;
54139;SDS011;40046;53.254;5.900;2023-06-04T07:15:41;10.32;;;1.98;;
54139;SDS011;40046;53.254;5.900;2023-06-04T07:18:07;9.02;;;2.25;;
54139;SDS011;40046;53.254;5.900;2023-06-04T07:20:34;7.95;;;2.10;;
54139;SDS011;40046;53.254;5.900;2023-06-04T07:23:00;6.50;;;1.98;;
54139;SDS011;40046;53.254;5.900;2023-06-04T07:25:26;9.30;;;2.22;;
54139;SDS011;40046;53.254;5.900;2023-06-04T07:27:52;8.07;;;1.92;;
54139;SDS011;40046;53.254;5.900;2023-06-04T07:30:18;8.77;;;3.03;;
54139;SDS011;40046;53.254;5.900;2023-06-04T07:32:47;8.05;;;2.10;;
54139;SDS011;40046;53.254;5.900;2023-06-04T07:35:14;4.60;;;1.98;;
54139;SDS011;40046;53.254;5.900;2023-06-04T07:37:40;7.60;;;2.45;;
54139;SDS011;40046;53.254;5.900;2023-06-04T07:40:09;7.07;;;2.65;;
54139;SDS011;40046;53.254;5.900;2023-06-04T07:42:36;8.68;;;2.38;;
54139;SDS011;40046;53.254;5.900;2023-06-04T07:45:02;8.82;;;2.45;;
54139;SDS011;40046;53.254;5.900;2023-06-04T07:47:28;5.57;;;1.55;;
54139;SDS011;40046;53.254;5.900;2023-06-04T07:49:54;6.35;;;1.98;;
54139;SDS011;40046;53.254;5.900;2023-06-04T07:52:21;8.32;;;2.70;;
54139;SDS011;40046;53.254;5.900;2023-06-04T07:54:47;7.18;;;2.42;;
54139;SDS011;40046;53.254;5.900;2023-06-04T07:57:13;7.32;;;1.98;;
54139;SDS011;40046;53.254;5.900;2023-06-04T07:59:39;7.07;;;2.35;;
54139;SDS011;40046;53.254;5.900;2023-06-04T08:02:05;4.70;;;1.45;;
54139;SDS011;40046;53.254;5.900;2023-06-04T08:04:31;5.85;;;2.00;;
54139;SDS011;40046;53.254;5.900;2023-06-04T08:06:58;4.80;;;1.67;;
54139;SDS011;40046;53.254;5.900;2023-06-04T08:09:25;7.63;;;2.47;;
54139;SDS011;40046;53.254;5.900;2023-06-04T08:11:51;8.13;;;2.10;;
54139;SDS011;40046;53.254;5.900;2023-06-04T08:14:17;5.45;;;2.08;;
54139;SDS011;40046;53.254;5.900;2023-06-04T08:16:45;8.82;;;2.78;;
54139;SDS011;40046;53.254;5.900;2023-06-04T08:19:11;6.18;;;2.25;;
54139;SDS011;40046;53.254;5.900;2023-06-04T08:21:38;9.85;;;2.45;;
54139;SDS011;40046;53.254;5.900;2023-06-04T08:24:05;11.85;;;2.35;;
54139;SDS011;40046;53.254;5.900;2023-06-04T08:26:31;4.10;;;1.88;;
54139;SDS011;40046;53.254;5.900;2023-06-04T08:28:58;11.45;;;2.50;;
54139;SDS011;40046;53.254;5.900;2023-06-04T08:31:24;6.32;;;2.03;;
54139;SDS011;40046;53.254;5.900;2023-06-04T08:33:50;5.65;;;2.30;;
54139;SDS011;40046;53.254;5.900;2023-06-04T08:36:16;4.05;;;1.40;;
54139;SDS011;40046;53.254;5.900;2023-06-04T08:38:43;5.90;;;2.00;;
54139;SDS011;40046;53.254;5.900;2023-06-04T08:41:16;7.57;;;2.42;;
54139;SDS011;40046;53.254;5.900;2023-06-04T08:43:43;4.45;;;1.85;;
54139;SDS011;40046;53.254;5.900;2023-06-04T08:46:10;8.32;;;1.90;;
54139;SDS011;40046;53.254;5.900;2023-06-04T08:48:37;5.13;;;2.05;;
54139;SDS011;40046;53.254;5.900;2023-06-04T08:51:05;6.07;;;2.35;;
54139;SDS011;40046;53.254;5.900;2023-06-04T08:53:34;4.85;;;1.90;;
54139;SDS011;40046;53.254;5.900;2023-06-04T08:56:01;11.15;;;3.00;;
54139;SDS011;40046;53.254;5.900;2023-06-04T08:58:29;5.70;;;1.67;;
54139;SDS011;40046;53.254;5.900;2023-06-04T09:00:57;11.35;;;2.70;;
54139;SDS011;40046;53.254;5.900;2023-06-04T09:03:23;5.18;;;1.90;;
54139;SDS011;40046;53.254;5.900;2023-06-04T09:05:50;5.13;;;2.00;;
54139;SDS011;40046;53.254;5.900;2023-06-04T09:08:17;5.57;;;1.90;;
54139;SDS011;40046;53.254;5.900;2023-06-04T09:10:44;4.15;;;1.80;;
54139;SDS011;40046;53.254;5.900;2023-06-04T09:13:11;5.53;;;2.05;;
54139;SDS011;40046;53.254;5.900;2023-06-04T09:15:38;7.50;;;1.75;;
54139;SDS011;40046;53.254;5.900;2023-06-04T09:18:05;6.30;;;2.22;;
54139;SDS011;40046;53.254;5.900;2023-06-04T09:20:31;9.00;;;2.15;;
54139;SDS011;40046;53.254;5.900;2023-06-04T09:22:58;9.90;;;2.28;;
54139;SDS011;40046;53.254;5.900;2023-06-04T09:25:25;4.75;;;2.13;;
54139;SDS011;40046;53.254;5.900;2023-06-04T09:27:52;5.63;;;1.73;;
54139;SDS011;40046;53.254;5.900;2023-06-04T09:30:20;4.20;;;1.30;;
54139;SDS011;40046;53.254;5.900;2023-06-04T09:32:46;9.02;;;2.42;;
54139;SDS011;40046;53.254;5.900;2023-06-04T09:35:16;6.53;;;1.40;;
54139;SDS011;40046;53.254;5.900;2023-06-04T09:37:51;4.18;;;1.58;;
54139;SDS011;40046;53.254;5.900;2023-06-04T09:40:17;4.78;;;2.25;;
54139;SDS011;40046;53.254;5.900;2023-06-04T09:42:47;4.28;;;1.42;;
54139;SDS011;40046;53.254;5.900;2023-06-04T09:45:26;5.47;;;1.92;;
54139;SDS011;40046;53.254;5.900;2023-06-04T09:47:54;7.88;;;2.40;;
54139;SDS011;40046;53.254;5.900;2023-06-04T09:52:53;6.38;;;1.95;;
54139;SDS011;40046;53.254;5.900;2023-06-04T09:55:19;7.05;;;2.20;;
54139;SDS011;40046;53.254;5.900;2023-06-04T09:57:47;10.52;;;2.10;;
54139;SDS011;40046;53.254;5.900;2023-06-04T10:00:18;2.85;;;1.20;;
54139;SDS011;40046;53.254;5.900;2023-06-04T10:02:45;7.05;;;2.47;;
54139;SDS011;40046;53.254;5.900;2023-06-04T10:05:12;7.50;;;2.15;;
54139;SDS011;40046;53.254;5.900;2023-06-04T10:07:45;8.80;;;2.20;;
54139;SDS011;40046;53.254;5.900;2023-06-04T10:10:21;4.63;;;1.98;;
54139;SDS011;40046;53.254;5.900;2023-06-04T10:12:50;8.48;;;3.28;;
54139;SDS011;40046;53.254;5.900;2023-06-04T10:15:16;9.32;;;7.82;;
54139;SDS011;40046;53.254;5.900;2023-06-04T10:17:42;20.73;;;17.95;;
54139;SDS011;40046;53.254;5.900;2023-06-04T10:20:10;6.15;;;3.30;;
54139;SDS011;40046;53.254;5.900;2023-06-04T10:22:37;6.50;;;2.67;;
54139;SDS011;40046;53.254;5.900;2023-06-04T10:25:03;9.20;;;3.58;;
54139;SDS011;40046;53.254;5.900;2023-06-04T10:27:30;6.43;;;2.22;;
54139;SDS011;40046;53.254;5.900;2023-06-04T10:29:57;6.15;;;2.33;;
54139;SDS011;40046;53.254;5.900;2023-06-04T10:32:26;6.28;;;2.20;;
54139;SDS011;40046;53.254;5.900;2023-06-04T10:34:53;5.28;;;1.67;;
54139;SDS011;40046;53.254;5.900;2023-06-04T10:37:20;6.03;;;2.30;;
54139;SDS011;40046;53.254;5.900;2023-06-04T10:39:53;6.35;;;2.38;;
54139;SDS011;40046;53.254;5.900;2023-06-04T10:42:19;5.68;;;2.25;;
54139;SDS011;40046;53.254;5.900;2023-06-04T10:44:47;6.25;;;2.63;;
54139;SDS011;40046;53.254;5.900;2023-06-04T10:47:23;5.15;;;2.47;;
54139;SDS011;40046;53.254;5.900;2023-06-04T10:49:53;5.55;;;2.63;;
54139;SDS011;40046;53.254;5.900;2023-06-04T10:52:20;5.32;;;2.55;;
54139;SDS011;40046;53.254;5.900;2023-06-04T10:54:46;5.05;;;2.50;;
54139;SDS011;40046;53.254;5.900;2023-06-04T10:57:18;8.13;;;2.53;;
54139;SDS011;40046;53.254;5.900;2023-06-04T10:59:57;7.38;;;2.53;;
54139;SDS011;40046;53.254;5.900;2023-06-04T11:02:24;8.90;;;2.42;;
54139;SDS011;40046;53.254;5.900;2023-06-04T11:05:05;7.32;;;2.03;;
54139;SDS011;40046;53.254;5.900;2023-06-04T11:10:09;7.75;;;2.42;;
54139;SDS011;40046;53.254;5.900;2023-06-04T11:12:45;8.70;;;2.92;;
54139;SDS011;40046;53.254;5.900;2023-06-04T11:15:12;5.72;;;2.40;;
54139;SDS011;40046;53.254;5.900;2023-06-04T11:17:48;9.98;;;3.10;;
54139;SDS011;40046;53.254;5.900;2023-06-04T11:20:17;7.55;;;1.88;;
54139;SDS011;40046;53.254;5.900;2023-06-04T11:22:51;5.35;;;2.30;;
54139;SDS011;40046;53.254;5.900;2023-06-04T11:25:17;9.40;;;2.78;;
54139;SDS011;40046;53.254;5.900;2023-06-04T11:27:43;6.88;;;2.15;;
54139;SDS011;40046;53.254;5.900;2023-06-04T11:30:10;5.97;;;2.05;;
54139;SDS011;40046;53.254;5.900;2023-06-04T11:32:37;3.92;;;2.45;;
54139;SDS011;40046;53.254;5.900;2023-06-04T11:35:03;8.93;;;2.78;;
54139;SDS011;40046;53.254;5.900;2023-06-04T11:37:31;6.63;;;2.35;;
54139;SDS011;40046;53.254;5.900;2023-06-04T11:39:58;5.57;;;2.70;;
54139;SDS011;40046;53.254;5.900;2023-06-04T11:42:26;7.43;;;2.53;;
54139;SDS011;40046;53.254;5.900;2023-06-04T11:44:55;7.05;;;2.90;;
54139;SDS011;40046;53.254;5.900;2023-06-04T11:47:22;5.45;;;2.15;;
54139;SDS011;40046;53.254;5.900;2023-06-04T11:49:53;13.07;;;3.42;;
54139;SDS011;40046;53.254;5.900;2023-06-04T11:52:20;8.15;;;2.20;;
54139;SDS011;40046;53.254;5.900;2023-06-04T11:54:46;9.52;;;2.92;;
54139;SDS011;40046;53.254;5.900;2023-06-04T11:57:12;6.47;;;2.13;;
54139;SDS011;40046;53.254;5.900;2023-06-04T11:59:39;8.20;;;2.33;;
54139;SDS011;40046;53.254;5.900;2023-06-04T12:02:05;10.60;;;3.58;;
54139;SDS011;40046;53.254;5.900;2023-06-04T12:04:32;5.13;;;1.98;;
54139;SDS011;40046;53.254;5.900;2023-06-04T12:06:59;6.50;;;2.47;;
54139;SDS011;40046;53.254;5.900;2023-06-04T12:09:30;6.90;;;1.98;;
54139;SDS011;40046;53.254;5.900;2023-06-04T12:11:58;6.07;;;2.25;;
54139;SDS011;40046;53.254;5.900;2023-06-04T12:14:25;6.18;;;2.17;;
54139;SDS011;40046;53.254;5.900;2023-06-04T12:16:57;5.70;;;2.28;;
54139;SDS011;40046;53.254;5.900;2023-06-04T12:19:24;9.57;;;2.87;;
54139;SDS011;40046;53.254;5.900;2023-06-04T12:24:30;6.25;;;1.88;;
54139;SDS011;40046;53.254;5.900;2023-06-04T12:29:28;7.68;;;1.65;;
54139;SDS011;40046;53.254;5.900;2023-06-04T12:32:07;9.45;;;2.28;;
54139;SDS011;40046;53.254;5.900;2023-06-04T12:34:37;7.65;;;2.85;;
54139;SDS011;40046;53.254;5.900;2023-06-04T12:37:03;6.07;;;2.00;;
54139;SDS011;40046;53.254;5.900;2023-06-04T12:39:34;7.45;;;2.65;;
54139;SDS011;40046;53.254;5.900;2023-06-04T12:42:05;5.13;;;1.95;;
54139;SDS011;40046;53.254;5.900;2023-06-04T12:44:32;8.27;;;2.20;;
54139;SDS011;40046;53.254;5.900;2023-06-04T12:46:58;3.78;;;1.67;;
54139;SDS011;40046;53.254;5.900;2023-06-04T12:49:24;4.30;;;1.70;;
54139;SDS011;40046;53.254;5.900;2023-06-04T12:51:50;5.88;;;1.80;;
54139;SDS011;40046;53.254;5.900;2023-06-04T12:54:17;7.75;;;2.72;;
54139;SDS011;40046;53.254;5.900;2023-06-04T12:56:44;6.78;;;2.00;;
54139;SDS011;40046;53.254;5.900;2023-06-04T12:59:10;5.57;;;2.03;;
54139;SDS011;40046;53.254;5.900;2023-06-04T13:01:36;6.00;;;1.90;;
54139;SDS011;40046;53.254;5.900;2023-06-04T13:04:03;5.75;;;1.98;;
54139;SDS011;40046;53.254;5.900;2023-06-04T13:06:29;8.05;;;2.47;;
54139;SDS011;40046;53.254;5.900;2023-06-04T13:08:56;5.28;;;2.30;;
54139;SDS011;40046;53.254;5.900;2023-06-04T13:11:22;7.13;;;2.42;;
54139;SDS011;40046;53.254;5.900;2023-06-04T13:13:48;6.95;;;2.20;;
54139;SDS011;40046;53.254;5.900;2023-06-04T13:16:14;5.90;;;2.63;;
54139;SDS011;40046;53.254;5.900;2023-06-04T13:18:40;6.30;;;2.38;;
54139;SDS011;40046;53.254;5.900;2023-06-04T13:21:06;8.73;;;1.95;;
54139;SDS011;40046;53.254;5.900;2023-06-04T13:23:33;3.95;;;1.80;;
54139;SDS011;40046;53.254;5.900;2023-06-04T13:25:59;5.22;;;1.98;;
54139;SDS011;40046;53.254;5.900;2023-06-04T13:28:26;6.50;;;2.25;;
54139;SDS011;40046;53.254;5.900;2023-06-04T13:30:52;5.50;;;2.25;;
54139;SDS011;40046;53.254;5.900;2023-06-04T13:33:18;6.93;;;3.17;;
54139;SDS011;40046;53.254;5.900;2023-06-04T13:35:46;5.80;;;2.13;;
54139;SDS011;40046;53.254;5.900;2023-06-04T13:38:12;5.90;;;1.92;;
54139;SDS011;40046;53.254;5.900;2023-06-04T13:40:39;5.18;;;1.80;;
54139;SDS011;40046;53.254;5.900;2023-06-04T13:43:05;9.23;;;2.25;;
54139;SDS011;40046;53.254;5.900;2023-06-04T13:45:34;5.22;;;1.98;;
54139;SDS011;40046;53.254;5.900;2023-06-04T13:48:01;6.35;;;2.10;;
54139;SDS011;40046;53.254;5.900;2023-06-04T13:50:34;7.07;;;1.73;;
54139;SDS011;40046;53.254;5.900;2023-06-04T13:53:00;6.93;;;2.40;;
54139;SDS011;40046;53.254;5.900;2023-06-04T13:55:26;11.23;;;2.30;;
54139;SDS011;40046;53.254;5.900;2023-06-04T13:57:52;5.75;;;1.85;;
54139;SDS011;40046;53.254;5.900;2023-06-04T14:00:19;8.55;;;2.47;;
54139;SDS011;40046;53.254;5.900;2023-06-04T14:02:46;6.85;;;2.10;;
54139;SDS011;40046;53.254;5.900;2023-06-04T14:05:12;8.48;;;2.28;;
54139;SDS011;40046;53.254;5.900;2023-06-04T14:07:38;5.75;;;2.10;;
54139;SDS011;40046;53.254;5.900;2023-06-04T14:10:04;6.65;;;1.73;;
54139;SDS011;40046;53.254;5.900;2023-06-04T14:12:31;8.20;;;2.90;;
54139;SDS011;40046;53.254;5.900;2023-06-04T14:14:57;6.00;;;1.80;;
54139;SDS011;40046;53.254;5.900;2023-06-04T14:17:23;8.90;;;3.28;;
54139;SDS011;40046;53.254;5.900;2023-06-04T14:19:49;8.68;;;3.22;;
54139;SDS011;40046;53.254;5.900;2023-06-04T14:22:15;5.20;;;2.10;;
54139;SDS011;40046;53.254;5.900;2023-06-04T14:24:41;7.65;;;1.92;;
54139;SDS011;40046;53.254;5.900;2023-06-04T14:27:08;6.50;;;2.45;;
54139;SDS011;40046;53.254;5.900;2023-06-04T14:29:34;4.78;;;1.73;;
54139;SDS011;40046;53.254;5.900;2023-06-04T14:32:01;6.07;;;2.35;;
54139;SDS011;40046;53.254;5.900;2023-06-04T14:34:28;9.75;;;2.40;;
54139;SDS011;40046;53.254;5.900;2023-06-04T14:36:54;8.43;;;2.38;;
54139;SDS011;40046;53.254;5.900;2023-06-04T14:39:22;11.77;;;2.13;;
54139;SDS011;40046;53.254;5.900;2023-06-04T14:41:48;7.72;;;2.30;;
54139;SDS011;40046;53.254;5.900;2023-06-04T14:44:15;8.45;;;2.30;;
54139;SDS011;40046;53.254;5.900;2023-06-04T14:46:42;10.70;;;2.50;;
54139;SDS011;40046;53.254;5.900;2023-06-04T14:49:08;6.05;;;2.22;;
54139;SDS011;40046;53.254;5.900;2023-06-04T14:51:34;7.28;;;3.42;;
54139;SDS011;40046;53.254;5.900;2023-06-04T14:54:01;4.25;;;1.77;;
54139;SDS011;40046;53.254;5.900;2023-06-04T14:56:28;8.43;;;2.92;;
54139;SDS011;40046;53.254;5.900;2023-06-04T14:58:55;7.28;;;1.77;;
54139;SDS011;40046;53.254;5.900;2023-06-04T15:01:21;5.40;;;1.95;;